Time;durP1;ratioP1;P1;durP2;ratioP2;P2;SDS_P1;SDS_P2;PMS_P1;PMS_P2;Temp;Humidity;BMP_temperature;BMP_pressure;BME280_temperature;BME280_humidity;BME280_pressure;Samples;Min_cycle;Max_cycle;Signal;HPM_P1;HPM_P2
2020/12/20 00:00:10;;;;;;;1.70;0.20;;;6.70;99.90;;;;;;5033826;28;20472;-63
2020/12/20 00:02:36;;;;;;;1.80;0.57;;;6.70;99.90;;;;;;5042208;28;20552;-65
2020/12/20 00:05:04;;;;;;;1.70;0.20;;;6.70;99.90;;;;;;5041607;28;20539;-63
2020/12/20 00:07:29;;;;;;;1.93;0.43;;;6.70;99.90;;;;;;5033295;28;20191;-64
2020/12/20 00:09:55;;;;;;;1.80;0.40;;;6.70;99.90;;;;;;5032165;28;20962;-63
2020/12/20 00:12:20;;;;;;;1.70;0.20;;;6.60;99.90;;;;;;5026237;28;20193;-65
2020/12/20 00:14:46;;;;;;;1.70;0.20;;;6.60;99.90;;;;;;5036363;28;20240;-63
2020/12/20 00:17:12;;;;;;;1.70;0.20;;;6.60;99.90;;;;;;5037017;28;20282;-64
2020/12/20 00:19:38;;;;;;;1.70;0.20;;;6.60;99.90;;;;;;5033329;28;20190;-64
2020/12/20 00:22:08;;;;;;;1.70;0.20;;;6.60;99.90;;;;;;5034750;28;20221;-64
2020/12/20 00:24:34;;;;;;;1.70;0.20;;;6.60;99.90;;;;;;5038681;28;20462;-65
2020/12/20 00:27:01;;;;;;;1.70;0.30;;;6.60;99.90;;;;;;5030145;23;20515;-57
2020/12/20 00:29:28;;;;;;;1.80;0.70;;;6.60;99.90;;;;;;5031221;28;20530;-60
2020/12/20 00:31:54;;;;;;;1.70;0.20;;;6.60;99.90;;;;;;5047182;28;20445;-59
2020/12/20 00:34:20;;;;;;;1.70;0.20;;;6.60;99.90;;;;;;5048706;28;20439;-59
2020/12/20 00:36:47;;;;;;;1.70;0.20;;;6.60;99.90;;;;;;5041862;28;20525;-58
2020/12/20 00:39:15;;;;;;;1.70;0.20;;;6.60;99.90;;;;;;5047094;28;20714;-58
2020/12/20 00:41:41;;;;;;;1.80;0.70;;;6.70;99.90;;;;;;5027486;28;20471;-58
2020/12/20 00:44:07;;;;;;;1.70;0.20;;;6.60;99.90;;;;;;5046150;28;20437;-59
2020/12/20 00:46:36;;;;;;;1.70;0.20;;;6.70;99.90;;;;;;5040743;28;20508;-58
2020/12/20 00:49:05;;;;;;;1.73;0.20;;;6.70;99.90;;;;;;5037441;28;20204;-58
2020/12/20 00:51:33;;;;;;;1.70;0.20;;;6.70;99.90;;;;;;5043384;28;20460;-57
2020/12/20 00:54:00;;;;;;;1.70;0.20;;;6.80;99.90;;;;;;5038587;28;20459;-59
2020/12/20 00:56:26;;;;;;;1.70;0.20;;;6.80;99.90;;;;;;5042774;28;20448;-60
2020/12/20 00:58:52;;;;;;;1.70;0.20;;;6.80;99.90;;;;;;5041272;28;20455;-59
2020/12/20 01:01:17;;;;;;;1.73;0.20;;;6.80;99.90;;;;;;5043963;28;20468;-60
2020/12/20 01:03:43;;;;;;;1.70;0.20;;;6.80;99.90;;;;;;5043937;28;20485;-60
2020/12/20 01:06:17;;;;;;;1.70;0.20;;;6.70;99.90;;;;;;5042586;28;20280;-58
2020/12/20 01:08:44;;;;;;;1.80;0.30;;;6.60;99.90;;;;;;5043203;28;20444;-57
2020/12/20 01:11:10;;;;;;;1.90;0.50;;;6.50;99.90;;;;;;5042178;28;20440;-57
2020/12/20 01:13:36;;;;;;;1.70;0.20;;;6.60;99.90;;;;;;5045784;28;20791;-60
2020/12/20 01:16:03;;;;;;;1.70;0.20;;;6.50;99.90;;;;;;5040657;28;20435;-57
2020/12/20 01:18:28;;;;;;;1.70;0.20;;;6.50;99.90;;;;;;5041990;28;20284;-57
2020/12/20 01:20:54;;;;;;;1.70;0.20;;;6.50;99.90;;;;;;5036642;28;20546;-57
2020/12/20 01:23:20;;;;;;;1.90;0.60;;;6.50;99.90;;;;;;5041976;28;20632;-57
2020/12/20 01:25:45;;;;;;;2.30;0.93;;;6.50;99.90;;;;;;5045199;28;20560;-60
2020/12/20 01:28:11;;;;;;;1.70;0.20;;;6.50;99.90;;;;;;5045097;28;20266;-60
2020/12/20 01:30:36;;;;;;;1.70;0.20;;;6.40;99.90;;;;;;5040022;28;20278;-60
2020/12/20 01:33:02;;;;;;;1.70;0.20;;;6.30;99.90;;;;;;5039985;28;20527;-59
2020/12/20 01:35:27;;;;;;;1.73;0.20;;;6.30;99.90;;;;;;5045156;28;20224;-60
2020/12/20 01:37:53;;;;;;;1.70;0.20;;;6.30;99.90;;;;;;5039018;28;20201;-57
2020/12/20 01:40:18;;;;;;;1.70;0.20;;;6.30;99.90;;;;;;5044993;28;20270;-58
2020/12/20 01:42:44;;;;;;;1.70;0.20;;;6.30;99.90;;;;;;5043675;28;20201;-63
2020/12/20 01:45:10;;;;;;;1.70;0.20;;;6.20;99.90;;;;;;5045616;28;20221;-58
2020/12/20 01:47:35;;;;;;;1.70;0.20;;;6.20;99.90;;;;;;5039671;28;20276;-59
2020/12/20 01:50:02;;;;;;;2.30;0.80;;;6.30;99.90;;;;;;5037410;28;20182;-60
2020/12/20 01:52:30;;;;;;;1.70;0.20;;;6.30;99.90;;;;;;5042704;28;21200;-60
2020/12/20 01:55:00;;;;;;;2.50;1.17;;;6.30;99.90;;;;;;5045469;28;20842;-57
2020/12/20 01:57:25;;;;;;;4.00;3.23;;;6.30;99.90;;;;;;5038083;28;20464;-59
2020/12/20 01:59:51;;;;;;;1.70;0.20;;;6.30;99.90;;;;;;5044331;28;20440;-60
2020/12/20 02:02:16;;;;;;;1.80;0.50;;;6.30;99.90;;;;;;5046343;28;20220;-59
2020/12/20 02:04:42;;;;;;;1.70;0.20;;;6.40;99.90;;;;;;5038837;28;20177;-59
2020/12/20 02:07:08;;;;;;;1.70;0.20;;;6.40;99.90;;;;;;5040384;28;20198;-59
2020/12/20 02:09:33;;;;;;;1.70;0.20;;;6.30;99.90;;;;;;5040331;28;20610;-59
2020/12/20 02:12:07;;;;;;;1.70;0.20;;;6.30;99.90;;;;;;5042891;28;20993;-59
2020/12/20 02:14:33;;;;;;;1.70;0.20;;;6.40;99.90;;;;;;5046001;28;20480;-59
2020/12/20 02:16:59;;;;;;;1.70;0.20;;;6.40;99.90;;;;;;5043265;28;20459;-59
2020/12/20 02:19:25;;;;;;;1.70;0.20;;;6.40;99.90;;;;;;5037733;28;20926;-59
2020/12/20 02:21:51;;;;;;;2.37;1.13;;;6.30;99.90;;;;;;5039193;28;20542;-59
2020/12/20 02:24:17;;;;;;;1.70;0.20;;;6.20;99.90;;;;;;5040672;28;20527;-59
2020/12/20 02:26:42;;;;;;;1.70;0.20;;;6.20;99.90;;;;;;5038613;28;20717;-59
2020/12/20 02:29:08;;;;;;;1.80;0.60;;;6.20;99.90;;;;;;5043899;28;20540;-59
2020/12/20 02:31:34;;;;;;;1.70;0.20;;;6.20;99.90;;;;;;5042524;28;20240;-60
2020/12/20 02:34:00;;;;;;;1.70;0.20;;;6.20;99.90;;;;;;5041601;28;20185;-59
2020/12/20 02:36:25;;;;;;;1.70;0.20;;;6.30;99.90;;;;;;5048010;28;20438;-59
2020/12/20 02:38:51;;;;;;;1.73;0.30;;;6.20;99.90;;;;;;5040274;28;20451;-59
2020/12/20 02:41:17;;;;;;;1.70;0.20;;;6.20;99.90;;;;;;5041363;28;20301;-59
2020/12/20 02:43:42;;;;;;;2.57;2.10;;;6.20;99.90;;;;;;5034756;28;20285;-61
2020/12/20 02:46:08;;;;;;;1.70;0.20;;;6.20;99.90;;;;;;5036081;28;20432;-59
2020/12/20 02:48:34;;;;;;;1.70;0.20;;;6.30;99.90;;;;;;5038928;28;20213;-59
2020/12/20 02:50:59;;;;;;;1.80;0.30;;;6.30;99.90;;;;;;5048001;28;20193;-59
2020/12/20 02:53:25;;;;;;;1.70;0.20;;;6.40;99.90;;;;;;5039546;28;20185;-59
2020/12/20 02:55:50;;;;;;;1.70;0.20;;;6.40;99.90;;;;;;5033832;28;20214;-59
2020/12/20 02:58:16;;;;;;;1.70;0.20;;;6.40;99.90;;;;;;5045238;28;20215;-60
2020/12/20 03:00:42;;;;;;;1.80;0.20;;;6.50;99.90;;;;;;5044726;28;20194;-59
2020/12/20 03:03:08;;;;;;;1.70;0.20;;;6.50;99.90;;;;;;5047870;28;20273;-59
2020/12/20 03:05:33;;;;;;;2.53;0.57;;;6.50;99.90;;;;;;5044431;28;20510;-59
2020/12/20 03:07:59;;;;;;;1.70;0.20;;;6.50;99.90;;;;;;5042665;28;20206;-59
2020/12/20 03:10:25;;;;;;;1.70;0.20;;;6.40;99.90;;;;;;5046733;28;20184;-59
2020/12/20 03:12:51;;;;;;;5.70;3.20;;;6.40;99.90;;;;;;5041527;28;20184;-59
2020/12/20 03:15:17;;;;;;;1.70;0.20;;;6.40;99.90;;;;;;5046595;28;20671;-59
2020/12/20 03:17:42;;;;;;;1.70;0.20;;;6.40;99.90;;;;;;5050728;28;20443;-59
2020/12/20 03:20:08;;;;;;;1.70;0.20;;;6.40;99.90;;;;;;5040991;28;20649;-59
2020/12/20 03:22:33;;;;;;;1.70;0.20;;;6.50;99.90;;;;;;5043189;28;20209;-59
2020/12/20 03:24:59;;;;;;;1.70;0.20;;;6.50;99.90;;;;;;5047805;28;20193;-59
2020/12/20 03:27:25;;;;;;;1.70;0.20;;;6.60;99.90;;;;;;5039578;28;20927;-57
2020/12/20 03:29:50;;;;;;;1.70;0.20;;;6.60;99.90;;;;;;5045933;28;20656;-57
2020/12/20 03:32:16;;;;;;;1.80;0.30;;;6.50;99.90;;;;;;5041573;28;20193;-57
2020/12/20 03:34:41;;;;;;;1.70;0.20;;;6.60;99.90;;;;;;5048221;28;20190;-60
2020/12/20 03:37:07;;;;;;;1.70;0.20;;;6.50;99.90;;;;;;5051573;28;20718;-58
2020/12/20 03:39:33;;;;;;;1.70;0.20;;;6.50;99.90;;;;;;5043115;28;20268;-58
2020/12/20 03:41:58;;;;;;;1.70;0.20;;;6.50;99.90;;;;;;5045773;28;20201;-58
2020/12/20 03:44:24;;;;;;;1.70;0.20;;;6.50;99.90;;;;;;5041970;28;20186;-58
2020/12/20 03:46:49;;;;;;;1.70;0.20;;;6.50;99.90;;;;;;5045228;28;20299;-58
2020/12/20 03:49:15;;;;;;;1.70;0.20;;;6.60;99.90;;;;;;5045119;28;20592;-58
2020/12/20 03:51:40;;;;;;;1.70;0.20;;;6.60;99.90;;;;;;5052462;28;20197;-58
2020/12/20 03:54:07;;;;;;;1.70;0.20;;;6.60;99.90;;;;;;5041731;28;20186;-58
2020/12/20 03:56:33;;;;;;;1.70;0.20;;;6.60;99.90;;;;;;5044538;28;20190;-58
2020/12/20 03:58:58;;;;;;;1.70;0.20;;;6.60;99.90;;;;;;5039022;28;20447;-58
2020/12/20 04:01:24;;;;;;;2.63;0.60;;;6.70;99.90;;;;;;5039091;28;20464;-58
2020/12/20 04:03:50;;;;;;;1.70;0.20;;;6.60;99.90;;;;;;5047828;28;20668;-58
2020/12/20 04:06:15;;;;;;;1.70;0.20;;;6.60;99.90;;;;;;5047859;28;20674;-58
2020/12/20 04:08:41;;;;;;;1.70;0.20;;;6.70;99.90;;;;;;5040650;28;20177;-58
2020/12/20 04:11:06;;;;;;;1.70;0.20;;;6.70;99.90;;;;;;5048069;28;20261;-58
2020/12/20 04:13:32;;;;;;;1.70;0.20;;;6.70;99.90;;;;;;5042027;28;20198;-59
2020/12/20 04:16:08;;;;;;;1.70;0.20;;;6.60;99.90;;;;;;5041493;28;20216;-58
2020/12/20 04:18:34;;;;;;;1.70;0.20;;;6.60;99.90;;;;;;5040914;28;20322;-58
2020/12/20 04:20:59;;;;;;;1.70;0.20;;;6.50;99.90;;;;;;5038568;28;21010;-58
2020/12/20 04:23:25;;;;;;;1.70;0.20;;;6.50;99.90;;;;;;5037884;28;20443;-58
2020/12/20 04:25:51;;;;;;;1.70;0.20;;;6.40;99.90;;;;;;5047871;28;20197;-58
2020/12/20 04:28:16;;;;;;;1.70;0.20;;;6.50;99.90;;;;;;5044388;28;20584;-58
2020/12/20 04:30:42;;;;;;;1.70;0.20;;;6.50;99.90;;;;;;5044475;28;20213;-58
2020/12/20 04:33:07;;;;;;;1.70;0.20;;;6.50;99.90;;;;;;5043682;28;20198;-58
2020/12/20 04:35:33;;;;;;;1.70;0.20;;;6.40;99.90;;;;;;5043745;28;20272;-58
2020/12/20 04:37:59;;;;;;;1.70;0.20;;;6.40;99.90;;;;;;5045793;28;20213;-58
2020/12/20 04:40:25;;;;;;;2.30;1.80;;;6.40;99.90;;;;;;5048658;28;20193;-58
2020/12/20 04:42:51;;;;;;;1.70;0.20;;;6.40;99.90;;;;;;5037314;28;20559;-58
2020/12/20 04:45:17;;;;;;;1.70;0.20;;;6.40;99.90;;;;;;5040028;28;20444;-58
2020/12/20 04:47:44;;;;;;;18.33;17.23;;;6.40;99.90;;;;;;5043883;28;20221;-58
2020/12/20 04:50:11;;;;;;;1.70;0.20;;;6.30;99.90;;;;;;5042255;28;20472;-58
2020/12/20 04:52:39;;;;;;;1.70;0.20;;;6.30;99.90;;;;;;5045385;28;20847;-58
2020/12/20 04:55:05;;;;;;;1.90;0.60;;;6.30;99.90;;;;;;5043095;28;20528;-58
2020/12/20 04:57:34;;;;;;;1.90;0.77;;;6.30;99.90;;;;;;5047806;28;20717;-58
2020/12/20 05:00:03;;;;;;;1.70;0.20;;;6.30;99.90;;;;;;5056341;28;20178;-58
2020/12/20 05:02:31;;;;;;;1.70;0.20;;;6.30;99.90;;;;;;5045325;28;20463;-58
2020/12/20 05:04:57;;;;;;;1.70;0.20;;;6.30;99.90;;;;;;5055948;28;20888;-58
2020/12/20 05:07:23;;;;;;;1.80;0.30;;;6.30;99.90;;;;;;5057309;28;20467;-58
2020/12/20 05:09:48;;;;;;;1.70;0.20;;;6.30;99.90;;;;;;5062370;28;20186;-58
2020/12/20 05:12:28;;;;;;;1.70;0.20;;;6.20;99.90;;;;;;5059152;28;20193;-58
2020/12/20 05:14:54;;;;;;;1.70;0.20;;;6.20;99.90;;;;;;5065706;28;20320;-59
2020/12/20 05:17:20;;;;;;;1.70;0.20;;;6.20;99.90;;;;;;5056564;28;20460;-58
2020/12/20 05:19:46;;;;;;;1.70;0.20;;;6.20;99.90;;;;;;5058904;28;20475;-58
2020/12/20 05:22:15;;;;;;;1.70;0.20;;;6.20;99.90;;;;;;5055705;28;20212;-58
2020/12/20 05:24:42;;;;;;;1.70;0.20;;;6.30;99.90;;;;;;5055715;28;20197;-58
2020/12/20 05:27:24;;;;;;;1.70;0.20;;;6.30;99.90;;;;;;5054722;28;20490;-58
2020/12/20 05:29:51;;;;;;;1.70;0.20;;;6.30;99.90;;;;;;5064439;28;20432;-58
2020/12/20 05:32:30;;;;;;;1.70;0.20;;;6.40;99.90;;;;;;5059071;28;20427;-60
2020/12/20 05:35:15;;;;;;;1.70;0.20;;;6.40;99.90;;;;;;5049424;28;20467;-59
2020/12/20 05:37:42;;;;;;;1.70;0.20;;;6.40;99.90;;;;;;5059548;28;20548;-59
2020/12/20 05:40:09;;;;;;;1.70;0.20;;;6.30;99.90;;;;;;5059167;28;20435;-59
2020/12/20 05:42:35;;;;;;;1.70;0.20;;;6.30;99.90;;;;;;5057446;28;20482;-59
2020/12/20 05:45:11;;;;;;;1.80;0.40;;;6.30;99.90;;;;;;5062305;28;20508;-59
2020/12/20 05:47:38;;;;;;;1.80;0.40;;;6.30;99.90;;;;;;5058002;28;20483;-59
2020/12/20 05:50:05;;;;;;;1.70;0.20;;;6.30;99.90;;;;;;5058897;28;20450;-59
2020/12/20 05:52:31;;;;;;;1.70;0.20;;;6.30;99.90;;;;;;5063219;28;20436;-58
2020/12/20 05:54:58;;;;;;;1.70;0.20;;;6.30;99.90;;;;;;5058467;28;20435;-58
2020/12/20 05:57:24;;;;;;;1.70;0.20;;;6.30;99.90;;;;;;5058109;28;20459;-58
2020/12/20 05:59:51;;;;;;;1.70;0.20;;;6.30;99.90;;;;;;5064402;28;20454;-58
2020/12/20 06:02:17;;;;;;;1.70;0.20;;;6.30;99.90;;;;;;5056443;28;20541;-58
2020/12/20 06:04:43;;;;;;;1.70;0.20;;;6.40;99.90;;;;;;5061440;28;20459;-58
2020/12/20 06:07:12;;;;;;;1.70;0.20;;;6.40;99.90;;;;;;5060206;28;20525;-59
2020/12/20 06:10:00;;;;;;;1.70;0.20;;;6.40;99.90;;;;;;5042145;28;20465;-59
2020/12/20 06:12:27;;;;;;;2.03;1.10;;;6.50;99.90;;;;;;5059221;28;20429;-59
2020/12/20 06:14:54;;;;;;;1.70;0.20;;;6.40;99.90;;;;;;5058129;28;20443;-59
2020/12/20 06:17:22;;;;;;;1.70;0.20;;;6.50;99.90;;;;;;5060194;28;20467;-59
2020/12/20 06:19:56;;;;;;;1.70;0.20;;;6.50;99.90;;;;;;5058082;28;20466;-59
2020/12/20 06:22:25;;;;;;;1.70;0.20;;;6.50;99.90;;;;;;5061609;28;20458;-59
2020/12/20 06:24:53;;;;;;;1.70;0.20;;;6.50;99.90;;;;;;5056399;28;20440;-62
2020/12/20 06:27:21;;;;;;;1.70;0.20;;;6.40;99.90;;;;;;5043994;28;20474;-58
2020/12/20 06:29:49;;;;;;;1.70;0.20;;;6.30;99.90;;;;;;5062759;28;20432;-58
2020/12/20 06:32:22;;;;;;;1.70;0.20;;;6.20;99.90;;;;;;5065170;28;20450;-58
2020/12/20 06:34:49;;;;;;;1.70;0.20;;;6.20;99.90;;;;;;5065067;28;20439;-58
2020/12/20 06:37:17;;;;;;;1.70;0.20;;;6.20;99.90;;;;;;5062878;28;20589;-58
2020/12/20 06:39:43;;;;;;;1.70;0.20;;;6.30;99.90;;;;;;5058647;28;20432;-58
2020/12/20 06:42:08;;;;;;;1.73;0.20;;;6.30;99.90;;;;;;5059646;28;20467;-58
2020/12/20 06:44:34;;;;;;;1.70;0.20;;;6.30;99.90;;;;;;5063380;28;20267;-58
2020/12/20 06:47:00;;;;;;;1.70;0.20;;;6.30;99.90;;;;;;5063169;28;20260;-57
2020/12/20 06:49:35;;;;;;;1.70;0.20;;;6.30;99.90;;;;;;5064576;28;20178;-58
2020/12/20 06:52:27;;;;;;;1.70;0.20;;;6.40;99.90;;;;;;5064373;28;20234;-59
2020/12/20 06:55:07;;;;;;;1.73;0.20;;;6.30;99.90;;;;;;5060902;28;20453;-58
2020/12/20 06:57:34;;;;;;;1.80;0.20;;;6.30;99.90;;;;;;5064784;28;20501;-59
2020/12/20 07:00:00;;;;;;;2.80;2.57;;;6.30;99.90;;;;;;5066110;28;20430;-57
2020/12/20 07:02:43;;;;;;;1.70;0.20;;;6.30;99.90;;;;;;5065111;28;20468;-58
2020/12/20 07:05:35;;;;;;;1.70;0.20;;;6.30;99.90;;;;;;5053803;28;20432;-59
2020/12/20 07:08:11;;;;;;;1.80;0.60;;;6.40;99.90;;;;;;5067249;28;20452;-58
2020/12/20 07:10:43;;;;;;;1.70;0.20;;;6.30;99.90;;;;;;5064649;28;20527;-57
2020/12/20 07:13:11;;;;;;;1.70;0.20;;;6.30;99.90;;;;;;5064540;28;20501;-58
2020/12/20 07:15:44;;;;;;;1.70;0.20;;;6.30;99.90;;;;;;5062332;28;20475;-58
2020/12/20 07:18:10;;;;;;;1.70;0.30;;;6.30;99.90;;;;;;5067537;28;20458;-58
2020/12/20 07:20:36;;;;;;;1.70;0.20;;;6.30;99.90;;;;;;5062328;28;20511;-58
2020/12/20 07:23:02;;;;;;;1.70;0.30;;;6.20;99.90;;;;;;5065074;28;20204;-58
2020/12/20 07:25:28;;;;;;;2.57;1.60;;;6.20;99.90;;;;;;5061077;28;20210;-58
2020/12/20 07:27:53;;;;;;;1.70;0.20;;;6.20;99.90;;;;;;5057240;28;20495;-57
2020/12/20 07:30:19;;;;;;;1.70;0.20;;;6.20;99.90;;;;;;5059417;28;20443;-58
2020/12/20 07:32:44;;;;;;;2.87;1.43;;;6.30;99.90;;;;;;5042690;28;20194;-58
2020/12/20 07:35:14;;;;;;;1.70;0.20;;;6.30;99.90;;;;;;5064198;28;20193;-58
2020/12/20 07:37:54;;;;;;;1.70;0.20;;;6.30;99.90;;;;;;5064502;28;20220;-58
2020/12/20 07:40:19;;;;;;;1.70;0.20;;;6.40;99.90;;;;;;5061222;28;20791;-57
2020/12/20 07:42:45;;;;;;;1.70;0.20;;;6.30;99.90;;;;;;5061522;28;20464;-58
2020/12/20 07:45:13;;;;;;;1.70;0.20;;;6.40;99.90;;;;;;5060182;28;20182;-58
2020/12/20 07:47:39;;;;;;;1.70;0.20;;;6.40;99.90;;;;;;5057685;28;20219;-58
2020/12/20 07:50:04;;;;;;;1.70;0.20;;;6.40;99.90;;;;;;5060829;28;20444;-59
2020/12/20 07:52:30;;;;;;;1.70;0.20;;;6.30;99.90;;;;;;5062964;28;20185;-59
2020/12/20 07:54:59;;;;;;;1.70;0.20;;;6.30;99.90;;;;;;5052616;28;20216;-59
2020/12/20 07:57:27;;;;;;;1.70;0.20;;;6.40;99.90;;;;;;5041970;28;20213;-59
2020/12/20 08:00:05;;;;;;;2.63;1.37;;;6.40;99.90;;;;;;5044145;28;20868;-59
2020/12/20 08:02:30;;;;;;;1.70;0.20;;;6.40;99.90;;;;;;5047188;28;21070;-59
2020/12/20 08:05:10;;;;;;;1.70;0.20;;;6.40;99.90;;;;;;5047268;28;20468;-59
2020/12/20 08:07:36;;;;;;;1.70;0.20;;;6.40;99.90;;;;;;5056413;28;20205;-58
2020/12/20 08:10:04;;;;;;;1.77;0.30;;;6.50;99.90;;;;;;5048013;28;20435;-59
2020/12/20 08:12:30;;;;;;;1.90;0.63;;;6.50;99.90;;;;;;5048512;28;20452;-59
2020/12/20 08:15:03;;;;;;;1.70;0.20;;;6.40;99.90;;;;;;5041540;28;20497;-59
2020/12/20 08:17:28;;;;;;;2.10;1.17;;;6.40;99.90;;;;;;5046611;28;20483;-59
2020/12/20 08:19:54;;;;;;;2.17;1.40;;;6.40;99.90;;;;;;5047838;28;20444;-58
2020/12/20 08:22:22;;;;;;;1.70;0.20;;;6.40;99.90;;;;;;5043525;28;20217;-59
2020/12/20 08:24:49;;;;;;;1.70;0.20;;;6.40;99.90;;;;;;5043203;28;20542;-59
2020/12/20 08:27:21;;;;;;;1.70;0.20;;;6.50;99.90;;;;;;5045850;28;20480;-58
2020/12/20 08:29:48;;;;;;;1.70;0.20;;;6.40;99.90;;;;;;5045512;28;20444;-59
2020/12/20 08:32:22;;;;;;;1.70;0.20;;;6.40;99.90;;;;;;5043933;28;20527;-59
2020/12/20 08:34:48;;;;;;;1.70;0.20;;;6.40;99.90;;;;;;5042653;28;20443;-58
2020/12/20 08:37:19;;;;;;;1.70;0.20;;;6.40;99.90;;;;;;5043130;28;20861;-59
2020/12/20 08:39:45;;;;;;;1.70;0.20;;;6.40;99.90;;;;;;5039971;28;20924;-59
2020/12/20 08:42:13;;;;;;;1.70;0.20;;;6.40;99.90;;;;;;5046181;28;20471;-58
2020/12/20 08:44:41;;;;;;;1.80;0.33;;;6.40;99.90;;;;;;5043909;28;21003;-59
2020/12/20 08:47:14;;;;;;;1.70;0.20;;;6.40;99.90;;;;;;5041465;28;20466;-58
2020/12/20 08:50:01;;;;;;;1.70;0.20;;;6.40;99.90;;;;;;5039827;28;20476;-59
2020/12/20 08:52:29;;;;;;;1.73;0.20;;;6.40;99.90;;;;;;5042918;28;20451;-58
2020/12/20 08:54:55;;;;;;;1.70;0.30;;;6.40;99.90;;;;;;5041491;28;20515;-59
2020/12/20 08:57:25;;;;;;;1.70;0.20;;;6.40;99.90;;;;;;5046949;28;20472;-59
2020/12/20 08:59:51;;;;;;;1.70;0.20;;;6.40;99.90;;;;;;5045163;28;20530;-59
2020/12/20 09:02:25;;;;;;;2.10;0.70;;;6.40;99.90;;;;;;5036338;28;20556;-59
2020/12/20 09:04:55;;;;;;;1.70;0.20;;;6.40;99.90;;;;;;5044926;28;20242;-59
2020/12/20 09:07:31;;;;;;;1.70;0.20;;;6.50;99.90;;;;;;5037245;28;20470;-58
2020/12/20 09:10:04;;;;;;;1.70;0.20;;;6.50;99.90;;;;;;5039571;28;20494;-59
2020/12/20 09:12:30;;;;;;;1.90;0.77;;;6.50;99.90;;;;;;5045607;28;20439;-61
2020/12/20 09:15:06;;;;;;;1.70;0.20;;;6.60;99.90;;;;;;5042710;28;20445;-59
2020/12/20 09:17:40;;;;;;;1.70;0.20;;;6.60;99.90;;;;;;5019448;28;20209;-58
2020/12/20 09:20:12;;;;;;;1.70;0.20;;;6.60;99.90;;;;;;5043995;28;20939;-58
2020/12/20 09:22:39;;;;;;;1.70;0.20;;;6.70;99.90;;;;;;5041170;28;20471;-59
2020/12/20 09:25:05;;;;;;;1.70;0.20;;;6.70;99.90;;;;;;5039175;28;20452;-59
2020/12/20 09:27:30;;;;;;;1.80;0.20;;;6.70;99.90;;;;;;5039044;28;20472;-58
2020/12/20 09:29:56;;;;;;;1.70;0.20;;;6.70;99.90;;;;;;5042025;28;20454;-59
2020/12/20 09:32:23;;;;;;;1.70;0.20;;;6.80;99.90;;;;;;5038863;28;20221;-58
2020/12/20 09:34:49;;;;;;;1.70;0.20;;;6.80;99.90;;;;;;5049479;28;20189;-59
2020/12/20 09:37:14;;;;;;;1.70;0.20;;;6.80;99.90;;;;;;5038823;28;20476;-59
2020/12/20 09:40:01;;;;;;;4.63;4.23;;;6.80;99.90;;;;;;5038122;28;20637;-59
2020/12/20 09:42:26;;;;;;;1.70;0.20;;;6.80;99.90;;;;;;5037633;28;20292;-59
2020/12/20 09:44:52;;;;;;;1.70;0.20;;;6.80;99.90;;;;;;5043346;28;20517;-59
2020/12/20 09:47:18;;;;;;;2.20;1.60;;;6.90;99.90;;;;;;5038262;28;20251;-59
2020/12/20 09:49:44;;;;;;;1.70;0.20;;;6.90;99.90;;;;;;5045486;28;20190;-59
2020/12/20 09:52:10;;;;;;;1.73;0.20;;;6.90;99.90;;;;;;5039734;28;20190;-59
2020/12/20 09:54:36;;;;;;;1.70;0.20;;;6.90;99.90;;;;;;5043944;28;20444;-59
2020/12/20 09:57:02;;;;;;;1.70;0.30;;;7.00;99.90;;;;;;5041695;28;20572;-59
2020/12/20 09:59:27;;;;;;;1.70;0.20;;;7.00;99.90;;;;;;5038240;28;20454;-60
2020/12/20 10:01:53;;;;;;;1.70;0.20;;;7.00;99.90;;;;;;5042343;28;20472;-60
2020/12/20 10:04:19;;;;;;;22.87;21.20;;;7.10;99.90;;;;;;5029349;28;20280;-60
2020/12/20 10:06:45;;;;;;;1.70;0.20;;;7.00;99.90;;;;;;5035290;28;20201;-59
2020/12/20 10:09:11;;;;;;;1.70;0.20;;;7.00;99.90;;;;;;5038906;28;20448;-59
2020/12/20 10:11:37;;;;;;;1.70;0.20;;;7.00;99.90;;;;;;5042187;28;20435;-59
2020/12/20 10:14:03;;;;;;;1.70;0.20;;;7.10;99.90;;;;;;5037471;28;20194;-59
2020/12/20 10:16:29;;;;;;;1.70;0.20;;;7.10;99.90;;;;;;5044910;28;20447;-59
2020/12/20 10:18:55;;;;;;;1.70;0.20;;;7.20;99.90;;;;;;5025344;28;20448;-59
2020/12/20 10:21:20;;;;;;;1.70;0.20;;;7.20;99.90;;;;;;5033089;28;20217;-59
2020/12/20 10:23:46;;;;;;;1.70;0.20;;;7.30;99.90;;;;;;5045995;28;20658;-58
2020/12/20 10:26:12;;;;;;;1.70;0.20;;;7.30;99.90;;;;;;5038107;28;21436;-58
2020/12/20 10:28:39;;;;;;;1.70;0.20;;;7.30;99.90;;;;;;5041267;28;20293;-59
2020/12/20 10:31:05;;;;;;;1.70;0.20;;;7.30;99.90;;;;;;5042186;28;20427;-59
2020/12/20 10:33:30;;;;;;;1.70;0.20;;;7.30;99.90;;;;;;5035172;28;20440;-58
2020/12/20 10:35:56;;;;;;;1.70;0.20;;;7.40;99.90;;;;;;5039402;28;20448;-58
2020/12/20 10:38:22;;;;;;;1.70;0.20;;;7.30;99.90;;;;;;5038603;28;20683;-58
2020/12/20 10:40:48;;;;;;;1.70;0.20;;;7.40;99.90;;;;;;5036386;28;20196;-59
2020/12/20 10:43:13;;;;;;;1.70;0.20;;;7.40;99.90;;;;;;5041590;28;20212;-58
2020/12/20 10:45:39;;;;;;;1.70;0.20;;;7.50;99.90;;;;;;5042059;28;20195;-58
2020/12/20 10:48:05;;;;;;;1.80;0.30;;;7.60;99.90;;;;;;5035910;28;20514;-59
2020/12/20 10:50:31;;;;;;;1.70;0.20;;;7.70;99.90;;;;;;5045387;28;20189;-59
2020/12/20 10:52:56;;;;;;;2.10;1.23;;;7.60;99.90;;;;;;5023211;28;20189;-58
2020/12/20 10:55:22;;;;;;;1.70;0.20;;;7.60;99.90;;;;;;5018950;28;20936;-58
2020/12/20 10:57:50;;;;;;;1.80;0.20;;;7.50;99.90;;;;;;5036672;28;20289;-59
2020/12/20 11:00:15;;;;;;;2.10;0.70;;;7.40;99.90;;;;;;5038454;28;20181;-57
2020/12/20 11:02:41;;;;;;;1.70;0.30;;;7.40;99.90;;;;;;5039292;28;20463;-58
2020/12/20 11:05:07;;;;;;;1.70;0.20;;;7.30;99.90;;;;;;5034920;28;20573;-59
2020/12/20 11:07:32;;;;;;;10.57;9.67;;;7.30;99.90;;;;;;5038299;28;20240;-59
2020/12/20 11:09:58;;;;;;;1.70;0.20;;;7.30;99.90;;;;;;5035712;28;20190;-58
2020/12/20 11:12:24;;;;;;;1.80;0.40;;;7.30;99.90;;;;;;5040318;28;20197;-59
2020/12/20 11:14:50;;;;;;;1.70;0.20;;;7.30;99.90;;;;;;5038564;28;20476;-59
2020/12/20 11:17:15;;;;;;;1.70;0.20;;;7.30;99.90;;;;;;5042283;28;20259;-59
2020/12/20 11:19:41;;;;;;;1.70;0.20;;;7.20;99.90;;;;;;5044088;28;20194;-59
2020/12/20 11:22:07;;;;;;;4.50;4.13;;;7.20;99.90;;;;;;5039902;28;20684;-59
2020/12/20 11:24:32;;;;;;;1.70;0.20;;;7.20;99.90;;;;;;5040225;28;20186;-57
2020/12/20 11:26:58;;;;;;;1.70;0.20;;;7.30;99.90;;;;;;5044586;28;20577;-57
2020/12/20 11:29:24;;;;;;;1.70;0.20;;;7.20;99.90;;;;;;5038882;28;20279;-57
2020/12/20 11:31:50;;;;;;;1.70;0.20;;;7.10;99.90;;;;;;5044880;28;20431;-57
2020/12/20 11:34:17;;;;;;;1.70;0.20;;;7.20;99.90;;;;;;5044076;28;20190;-57
2020/12/20 11:36:43;;;;;;;2.27;1.23;;;7.20;99.90;;;;;;5043270;28;20496;-57
2020/12/20 11:39:11;;;;;;;1.80;0.40;;;7.20;99.90;;;;;;5046915;28;20444;-57
2020/12/20 11:41:38;;;;;;;1.70;0.20;;;7.20;99.90;;;;;;5042292;23;20476;-57
2020/12/20 11:44:05;;;;;;;1.70;0.20;;;7.20;99.90;;;;;;5046960;28;20471;-58
2020/12/20 11:46:31;;;;;;;1.70;0.20;;;7.20;99.90;;;;;;5051388;28;20439;-58
2020/12/20 11:48:57;;;;;;;1.70;0.20;;;7.20;99.90;;;;;;5054575;28;20469;-58
2020/12/20 11:51:26;;;;;;;1.70;0.20;;;7.20;99.90;;;;;;5048977;28;20467;-58
2020/12/20 11:53:53;;;;;;;1.70;0.20;;;7.20;99.90;;;;;;5046669;28;20443;-58
2020/12/20 11:56:19;;;;;;;1.70;0.20;;;7.30;99.90;;;;;;5044277;28;21004;-59
2020/12/20 11:58:44;;;;;;;5.30;4.90;;;7.30;99.90;;;;;;5044099;28;20435;-58
2020/12/20 12:01:11;;;;;;;1.70;0.20;;;7.30;99.90;;;;;;5052635;28;20219;-58
2020/12/20 12:03:37;;;;;;;1.70;0.20;;;7.40;99.90;;;;;;5048106;28;20189;-58
2020/12/20 12:06:02;;;;;;;1.70;0.20;;;7.40;99.90;;;;;;5046968;28;20449;-59
2020/12/20 12:08:28;;;;;;;2.00;0.93;;;7.50;99.90;;;;;;5025325;28;20182;-58
2020/12/20 12:10:54;;;;;;;1.70;0.20;;;7.50;99.90;;;;;;5046121;28;21261;-58
2020/12/20 12:13:21;;;;;;;1.77;0.27;;;7.50;99.90;;;;;;5054412;28;20950;-58
2020/12/20 12:15:46;;;;;;;1.70;0.20;;;7.50;99.90;;;;;;5043140;28;20182;-58
2020/12/20 12:18:13;;;;;;;6.57;3.57;;;7.60;99.90;;;;;;5050066;28;20938;-58
2020/12/20 12:20:38;;;;;;;1.70;0.20;;;7.60;99.90;;;;;;5049608;28;20297;-58
2020/12/20 12:23:04;;;;;;;1.70;0.20;;;7.60;99.90;;;;;;5043164;28;20551;-58
2020/12/20 12:25:30;;;;;;;1.80;0.20;;;7.70;99.90;;;;;;5056029;28;20217;-57
2020/12/20 12:27:56;;;;;;;2.87;2.30;;;7.70;99.90;;;;;;5042840;28;20589;-57
2020/12/20 12:30:22;;;;;;;1.70;0.20;;;7.80;99.90;;;;;;5043629;28;20600;-57
2020/12/20 12:32:52;;;;;;;2.00;0.83;;;7.70;99.90;;;;;;5047719;28;20185;-58
2020/12/20 12:35:18;;;;;;;1.70;0.20;;;7.60;99.90;;;;;;5052081;28;20442;-58
2020/12/20 12:37:43;;;;;;;1.70;0.20;;;7.60;99.90;;;;;;5049725;28;20455;-58
2020/12/20 12:40:09;;;;;;;1.73;0.20;;;7.60;99.90;;;;;;5057880;28;20471;-58
2020/12/20 12:42:34;;;;;;;1.70;0.20;;;7.70;99.90;;;;;;5038525;28;20261;-58
2020/12/20 12:45:00;;;;;;;1.70;0.20;;;7.70;99.90;;;;;;5047671;28;20182;-58
2020/12/20 12:47:25;;;;;;;1.77;0.20;;;7.70;99.90;;;;;;5042652;28;20260;-58
2020/12/20 12:49:51;;;;;;;1.70;0.20;;;7.80;99.90;;;;;;5050369;28;20204;-58
2020/12/20 12:52:16;;;;;;;2.23;1.90;;;7.80;99.90;;;;;;5049190;28;20224;-58
2020/12/20 12:54:42;;;;;;;1.70;0.20;;;7.70;99.90;;;;;;5037269;28;20644;-58
2020/12/20 12:57:07;;;;;;;1.70;0.20;;;7.70;99.90;;;;;;5026528;28;20208;-58